sensor_id;sensor_type;location;lat;lon;timestamp;P1;durP1;ratioP1;P2;durP2;ratioP2
67712;SDS011;54503;55.784;49.138;2022-12-05T00:00:03;33.43;;;7.47;;
67712;SDS011;54503;55.784;49.138;2022-12-05T00:05:21;22.40;;;6.40;;
67712;SDS011;54503;55.784;49.138;2022-12-05T00:10:26;24.23;;;6.55;;
67712;SDS011;54503;55.784;49.138;2022-12-05T00:15:49;22.17;;;7.33;;
67712;SDS011;54503;55.784;49.138;2022-12-05T00:21:15;25.00;;;4.95;;
67712;SDS011;54503;55.784;49.138;2022-12-05T00:26:31;21.77;;;6.28;;
67712;SDS011;54503;55.784;49.138;2022-12-05T00:31:36;20.68;;;6.90;;
67712;SDS011;54503;55.784;49.138;2022-12-05T00:36:54;19.00;;;6.63;;
67712;SDS011;54503;55.784;49.138;2022-12-05T00:41:59;27.77;;;7.17;;
67712;SDS011;54503;55.784;49.138;2022-12-05T00:47:05;17.05;;;6.25;;
67712;SDS011;54503;55.784;49.138;2022-12-05T00:52:10;21.83;;;6.87;;
67712;SDS011;54503;55.784;49.138;2022-12-05T00:57:30;27.45;;;5.90;;
67712;SDS011;54503;55.784;49.138;2022-12-05T01:02:48;14.83;;;4.92;;
67712;SDS011;54503;55.784;49.138;2022-12-05T01:08:07;18.37;;;5.72;;
67712;SDS011;54503;55.784;49.138;2022-12-05T01:13:13;18.83;;;5.07;;
67712;SDS011;54503;55.784;49.138;2022-12-05T01:18:32;21.62;;;3.50;;
67712;SDS011;54503;55.784;49.138;2022-12-05T01:23:59;23.85;;;6.78;;
67712;SDS011;54503;55.784;49.138;2022-12-05T01:29:05;13.13;;;4.73;;
67712;SDS011;54503;55.784;49.138;2022-12-05T01:34:13;19.12;;;5.37;;
67712;SDS011;54503;55.784;49.138;2022-12-05T01:39:36;22.13;;;4.85;;
67712;SDS011;54503;55.784;49.138;2022-12-05T01:50:08;21.55;;;4.78;;
67712;SDS011;54503;55.784;49.138;2022-12-05T01:55:35;12.73;;;3.47;;
67712;SDS011;54503;55.784;49.138;2022-12-05T02:00:55;19.07;;;5.58;;
67712;SDS011;54503;55.784;49.138;2022-12-05T02:06:00;26.35;;;5.90;;
67712;SDS011;54503;55.784;49.138;2022-12-05T02:11:07;22.25;;;4.75;;
67712;SDS011;54503;55.784;49.138;2022-12-05T02:43:58;14.90;;;4.92;;
67712;SDS011;54503;55.784;49.138;2022-12-05T02:49:06;22.17;;;5.47;;
67712;SDS011;54503;55.784;49.138;2022-12-05T02:54:13;14.10;;;4.30;;
67712;SDS011;54503;55.784;49.138;2022-12-05T02:59:34;15.05;;;4.85;;
67712;SDS011;54503;55.784;49.138;2022-12-05T03:10:28;12.97;;;4.20;;
67712;SDS011;54503;55.784;49.138;2022-12-05T03:15:37;13.78;;;5.15;;
67712;SDS011;54503;55.784;49.138;2022-12-05T03:31:51;18.17;;;5.35;;
67712;SDS011;54503;55.784;49.138;2022-12-05T03:37:19;11.97;;;3.98;;
67712;SDS011;54503;55.784;49.138;2022-12-05T03:42:27;10.87;;;4.20;;
67712;SDS011;54503;55.784;49.138;2022-12-05T03:47:52;18.82;;;5.75;;
67712;SDS011;54503;55.784;49.138;2022-12-05T04:04:41;21.90;;;5.70;;
67712;SDS011;54503;55.784;49.138;2022-12-05T04:10:04;18.60;;;5.63;;
67712;SDS011;54503;55.784;49.138;2022-12-05T04:15:23;15.67;;;4.60;;
67712;SDS011;54503;55.784;49.138;2022-12-05T04:20:30;17.15;;;5.25;;
67712;SDS011;54503;55.784;49.138;2022-12-05T04:31:36;14.80;;;5.40;;
67712;SDS011;54503;55.784;49.138;2022-12-05T04:36:56;15.50;;;4.72;;
67712;SDS011;54503;55.784;49.138;2022-12-05T04:47:23;14.23;;;4.17;;
67712;SDS011;54503;55.784;49.138;2022-12-05T04:52:29;12.85;;;3.08;;
67712;SDS011;54503;55.784;49.138;2022-12-05T05:09:16;17.63;;;5.53;;
67712;SDS011;54503;55.784;49.138;2022-12-05T05:14:21;16.80;;;6.15;;
67712;SDS011;54503;55.784;49.138;2022-12-05T05:19:27;13.27;;;4.00;;
67712;SDS011;54503;55.784;49.138;2022-12-05T05:24:45;13.03;;;4.60;;
67712;SDS011;54503;55.784;49.138;2022-12-05T05:29:50;18.62;;;4.72;;
67712;SDS011;54503;55.784;49.138;2022-12-05T05:35:13;14.23;;;3.92;;
67712;SDS011;54503;55.784;49.138;2022-12-05T05:40:19;17.93;;;4.90;;
67712;SDS011;54503;55.784;49.138;2022-12-05T05:45:24;17.48;;;5.55;;
67712;SDS011;54503;55.784;49.138;2022-12-05T05:50:43;19.57;;;5.85;;
67712;SDS011;54503;55.784;49.138;2022-12-05T06:01:41;15.03;;;4.28;;
67712;SDS011;54503;55.784;49.138;2022-12-05T06:06:46;26.23;;;5.63;;
67712;SDS011;54503;55.784;49.138;2022-12-05T06:11:51;18.92;;;5.47;;
67712;SDS011;54503;55.784;49.138;2022-12-05T06:17:08;23.40;;;5.92;;
67712;SDS011;54503;55.784;49.138;2022-12-05T06:22:13;9.48;;;3.67;;
67712;SDS011;54503;55.784;49.138;2022-12-05T06:27:32;15.40;;;5.67;;
67712;SDS011;54503;55.784;49.138;2022-12-05T06:32:37;21.00;;;5.28;;
67712;SDS011;54503;55.784;49.138;2022-12-05T06:37:57;18.33;;;6.53;;
67712;SDS011;54503;55.784;49.138;2022-12-05T06:43:16;18.00;;;5.50;;
67712;SDS011;54503;55.784;49.138;2022-12-05T06:48:21;19.85;;;5.37;;
67712;SDS011;54503;55.784;49.138;2022-12-05T06:53:27;18.17;;;5.45;;
67712;SDS011;54503;55.784;49.138;2022-12-05T06:58:32;19.37;;;5.45;;
67712;SDS011;54503;55.784;49.138;2022-12-05T07:03:49;14.40;;;4.78;;
67712;SDS011;54503;55.784;49.138;2022-12-05T07:08:54;21.80;;;6.30;;
67712;SDS011;54503;55.784;49.138;2022-12-05T07:14:00;19.17;;;6.92;;
67712;SDS011;54503;55.784;49.138;2022-12-05T07:19:18;22.07;;;7.03;;
67712;SDS011;54503;55.784;49.138;2022-12-05T07:24:23;19.03;;;5.93;;
67712;SDS011;54503;55.784;49.138;2022-12-05T07:29:46;19.15;;;6.00;;
67712;SDS011;54503;55.784;49.138;2022-12-05T07:35:10;25.80;;;5.95;;
67712;SDS011;54503;55.784;49.138;2022-12-05T07:40:36;21.70;;;6.90;;
67712;SDS011;54503;55.784;49.138;2022-12-05T07:51:37;28.63;;;7.77;;
67712;SDS011;54503;55.784;49.138;2022-12-05T07:56:56;22.35;;;6.60;;
67712;SDS011;54503;55.784;49.138;2022-12-05T08:02:01;18.45;;;5.97;;
67712;SDS011;54503;55.784;49.138;2022-12-05T08:07:08;21.15;;;6.10;;
67712;SDS011;54503;55.784;49.138;2022-12-05T08:12:12;19.15;;;5.80;;
67712;SDS011;54503;55.784;49.138;2022-12-05T08:17:31;14.17;;;5.33;;
67712;SDS011;54503;55.784;49.138;2022-12-05T08:22:51;20.95;;;6.30;;
67712;SDS011;54503;55.784;49.138;2022-12-05T08:27:56;22.77;;;6.67;;
67712;SDS011;54503;55.784;49.138;2022-12-05T08:33:15;16.40;;;5.92;;
67712;SDS011;54503;55.784;49.138;2022-12-05T08:38:20;23.80;;;6.87;;
67712;SDS011;54503;55.784;49.138;2022-12-05T08:43:25;24.70;;;7.53;;
67712;SDS011;54503;55.784;49.138;2022-12-05T08:48:44;25.77;;;8.03;;
67712;SDS011;54503;55.784;49.138;2022-12-05T08:54:01;24.18;;;5.97;;
67712;SDS011;54503;55.784;49.138;2022-12-05T08:59:06;20.73;;;5.27;;
67712;SDS011;54503;55.784;49.138;2022-12-05T09:04:25;18.77;;;6.40;;
67712;SDS011;54503;55.784;49.138;2022-12-05T09:09:44;25.55;;;7.47;;
67712;SDS011;54503;55.784;49.138;2022-12-05T09:15:04;17.63;;;6.77;;
67712;SDS011;54503;55.784;49.138;2022-12-05T09:20:23;24.20;;;7.22;;
67712;SDS011;54503;55.784;49.138;2022-12-05T09:25:29;17.07;;;5.43;;
67712;SDS011;54503;55.784;49.138;2022-12-05T09:30:54;20.83;;;6.17;;
67712;SDS011;54503;55.784;49.138;2022-12-05T09:35:53;19.75;;;6.42;;
67712;SDS011;54503;55.784;49.138;2022-12-05T09:51:56;21.02;;;6.58;;
67712;SDS011;54503;55.784;49.138;2022-12-05T09:57:02;31.07;;;9.65;;
67712;SDS011;54503;55.784;49.138;2022-12-05T10:19:05;25.17;;;7.90;;
67712;SDS011;54503;55.784;49.138;2022-12-05T10:29:39;18.07;;;5.97;;
67712;SDS011;54503;55.784;49.138;2022-12-05T10:35:01;24.15;;;7.40;;
67712;SDS011;54503;55.784;49.138;2022-12-05T10:40:20;19.47;;;6.87;;
67712;SDS011;54503;55.784;49.138;2022-12-05T10:51:19;21.65;;;7.12;;
67712;SDS011;54503;55.784;49.138;2022-12-05T10:56:43;22.90;;;6.23;;
67712;SDS011;54503;55.784;49.138;2022-12-05T11:02:11;29.25;;;6.87;;
67712;SDS011;54503;55.784;49.138;2022-12-05T11:07:31;41.77;;;13.07;;
67712;SDS011;54503;55.784;49.138;2022-12-05T11:12:55;23.10;;;7.42;;
67712;SDS011;54503;55.784;49.138;2022-12-05T11:23:38;30.52;;;6.62;;
67712;SDS011;54503;55.784;49.138;2022-12-05T11:28:43;21.95;;;5.72;;
67712;SDS011;54503;55.784;49.138;2022-12-05T11:34:03;21.05;;;5.75;;
67712;SDS011;54503;55.784;49.138;2022-12-05T11:39:23;20.17;;;6.97;;
67712;SDS011;54503;55.784;49.138;2022-12-05T12:51:05;25.53;;;6.93;;
67712;SDS011;54503;55.784;49.138;2022-12-05T13:01:47;19.90;;;6.00;;
67712;SDS011;54503;55.784;49.138;2022-12-05T13:17:38;21.93;;;5.72;;
67712;SDS011;54503;55.784;49.138;2022-12-05T13:22:45;20.32;;;6.50;;
67712;SDS011;54503;55.784;49.138;2022-12-05T13:28:05;25.50;;;6.73;;
67712;SDS011;54503;55.784;49.138;2022-12-05T13:33:25;29.10;;;8.28;;
67712;SDS011;54503;55.784;49.138;2022-12-05T13:38:45;22.00;;;8.43;;
67712;SDS011;54503;55.784;49.138;2022-12-05T13:44:10;19.60;;;6.67;;
67712;SDS011;54503;55.784;49.138;2022-12-05T13:49:19;24.57;;;8.05;;
67712;SDS011;54503;55.784;49.138;2022-12-05T13:54:40;30.40;;;6.72;;
67712;SDS011;54503;55.784;49.138;2022-12-05T14:32:46;33.45;;;8.33;;
67712;SDS011;54503;55.784;49.138;2022-12-05T14:48:38;26.90;;;7.37;;
67712;SDS011;54503;55.784;49.138;2022-12-05T14:53:44;32.65;;;10.65;;
67712;SDS011;54503;55.784;49.138;2022-12-05T15:15:43;21.60;;;7.37;;
67712;SDS011;54503;55.784;49.138;2022-12-05T15:26:36;22.00;;;6.55;;
67712;SDS011;54503;55.784;49.138;2022-12-05T15:31:49;22.73;;;7.57;;
67712;SDS011;54503;55.784;49.138;2022-12-05T15:36:56;28.05;;;8.75;;
67712;SDS011;54503;55.784;49.138;2022-12-05T15:42:15;30.10;;;8.03;;
67712;SDS011;54503;55.784;49.138;2022-12-05T15:47:21;31.30;;;9.18;;
67712;SDS011;54503;55.784;49.138;2022-12-05T15:52:41;21.55;;;7.78;;
67712;SDS011;54503;55.784;49.138;2022-12-05T15:57:48;28.75;;;8.75;;
67712;SDS011;54503;55.784;49.138;2022-12-05T16:08:32;26.45;;;8.20;;
67712;SDS011;54503;55.784;49.138;2022-12-05T16:19:30;34.18;;;9.90;;
67712;SDS011;54503;55.784;49.138;2022-12-05T16:35:39;31.40;;;10.20;;
67712;SDS011;54503;55.784;49.138;2022-12-05T16:51:51;25.52;;;9.50;;
67712;SDS011;54503;55.784;49.138;2022-12-05T16:57:05;35.58;;;9.18;;
67712;SDS011;54503;55.784;49.138;2022-12-05T17:02:12;35.33;;;9.17;;
67712;SDS011;54503;55.784;49.138;2022-12-05T17:07:31;29.00;;;8.30;;
67712;SDS011;54503;55.784;49.138;2022-12-05T17:12:50;25.48;;;9.03;;
67712;SDS011;54503;55.784;49.138;2022-12-05T17:17:55;29.92;;;8.23;;
67712;SDS011;54503;55.784;49.138;2022-12-05T17:23:14;27.52;;;7.72;;
67712;SDS011;54503;55.784;49.138;2022-12-05T17:28:19;25.43;;;8.35;;
67712;SDS011;54503;55.784;49.138;2022-12-05T17:33:24;35.30;;;9.67;;
67712;SDS011;54503;55.784;49.138;2022-12-05T17:38:43;39.80;;;11.55;;
67712;SDS011;54503;55.784;49.138;2022-12-05T17:49:41;31.70;;;9.58;;
67712;SDS011;54503;55.784;49.138;2022-12-05T17:54:46;31.80;;;10.43;;
67712;SDS011;54503;55.784;49.138;2022-12-05T17:59:51;30.33;;;9.40;;
67712;SDS011;54503;55.784;49.138;2022-12-05T18:04:56;36.28;;;10.30;;
67712;SDS011;54503;55.784;49.138;2022-12-05T18:15:34;20.23;;;6.87;;
67712;SDS011;54503;55.784;49.138;2022-12-05T18:20:39;23.67;;;8.65;;
67712;SDS011;54503;55.784;49.138;2022-12-05T18:25:59;27.32;;;9.18;;
67712;SDS011;54503;55.784;49.138;2022-12-05T18:31:18;23.38;;;6.15;;
67712;SDS011;54503;55.784;49.138;2022-12-05T18:36:37;22.93;;;7.22;;
67712;SDS011;54503;55.784;49.138;2022-12-05T18:42:04;17.50;;;6.85;;
67712;SDS011;54503;55.784;49.138;2022-12-05T18:47:09;19.67;;;6.27;;
67712;SDS011;54503;55.784;49.138;2022-12-05T18:52:26;23.85;;;8.23;;
67712;SDS011;54503;55.784;49.138;2022-12-05T18:57:31;18.10;;;7.12;;
67712;SDS011;54503;55.784;49.138;2022-12-05T19:02:50;28.93;;;7.77;;
67712;SDS011;54503;55.784;49.138;2022-12-05T19:08:15;22.53;;;7.47;;
67712;SDS011;54503;55.784;49.138;2022-12-05T19:13:20;23.75;;;7.35;;
67712;SDS011;54503;55.784;49.138;2022-12-05T19:18:39;22.43;;;7.50;;
67712;SDS011;54503;55.784;49.138;2022-12-05T19:24:01;20.77;;;6.67;;
67712;SDS011;54503;55.784;49.138;2022-12-05T19:29:20;23.38;;;6.92;;
67712;SDS011;54503;55.784;49.138;2022-12-05T19:34:39;18.40;;;5.70;;
67712;SDS011;54503;55.784;49.138;2022-12-05T19:39:44;23.05;;;7.40;;
67712;SDS011;54503;55.784;49.138;2022-12-05T19:45:04;21.73;;;5.97;;
67712;SDS011;54503;55.784;49.138;2022-12-05T19:50:09;22.60;;;7.30;;
67712;SDS011;54503;55.784;49.138;2022-12-05T19:55:14;21.33;;;8.15;;
67712;SDS011;54503;55.784;49.138;2022-12-05T20:00:31;18.32;;;6.00;;
67712;SDS011;54503;55.784;49.138;2022-12-05T20:05:36;17.12;;;4.33;;
67712;SDS011;54503;55.784;49.138;2022-12-05T20:10:41;20.85;;;5.87;;
67712;SDS011;54503;55.784;49.138;2022-12-05T20:16:00;18.50;;;7.73;;
67712;SDS011;54503;55.784;49.138;2022-12-05T20:21:20;18.70;;;6.05;;
67712;SDS011;54503;55.784;49.138;2022-12-05T20:26:41;15.88;;;5.12;;
67712;SDS011;54503;55.784;49.138;2022-12-05T20:31:46;18.60;;;7.33;;
67712;SDS011;54503;55.784;49.138;2022-12-05T20:36:55;15.88;;;6.03;;
67712;SDS011;54503;55.784;49.138;2022-12-05T20:42:00;19.67;;;6.07;;
67712;SDS011;54503;55.784;49.138;2022-12-05T20:47:17;19.30;;;6.47;;
67712;SDS011;54503;55.784;49.138;2022-12-05T20:52:22;18.65;;;6.45;;
67712;SDS011;54503;55.784;49.138;2022-12-05T20:57:45;23.23;;;6.43;;
67712;SDS011;54503;55.784;49.138;2022-12-05T21:03:04;18.48;;;6.35;;
67712;SDS011;54503;55.784;49.138;2022-12-05T21:08:25;19.40;;;6.30;;
67712;SDS011;54503;55.784;49.138;2022-12-05T21:13:31;18.48;;;7.17;;
67712;SDS011;54503;55.784;49.138;2022-12-05T21:18:36;20.32;;;6.60;;
67712;SDS011;54503;55.784;49.138;2022-12-05T21:23:41;20.82;;;6.83;;
67712;SDS011;54503;55.784;49.138;2022-12-05T21:29:01;24.83;;;6.80;;
67712;SDS011;54503;55.784;49.138;2022-12-05T21:34:21;19.48;;;7.10;;
67712;SDS011;54503;55.784;49.138;2022-12-05T21:39:26;23.45;;;7.20;;
67712;SDS011;54503;55.784;49.138;2022-12-05T21:44:44;22.83;;;7.30;;
67712;SDS011;54503;55.784;49.138;2022-12-05T21:49:49;23.90;;;7.87;;
67712;SDS011;54503;55.784;49.138;2022-12-05T21:55:07;23.85;;;7.58;;
67712;SDS011;54503;55.784;49.138;2022-12-05T22:00:13;24.95;;;7.45;;
67712;SDS011;54503;55.784;49.138;2022-12-05T22:05:18;22.75;;;8.35;;
67712;SDS011;54503;55.784;49.138;2022-12-05T22:10:37;28.07;;;7.83;;
67712;SDS011;54503;55.784;49.138;2022-12-05T22:15:57;26.90;;;7.80;;
67712;SDS011;54503;55.784;49.138;2022-12-05T22:21:17;24.23;;;6.70;;
67712;SDS011;54503;55.784;49.138;2022-12-05T22:26:23;26.17;;;8.35;;
67712;SDS011;54503;55.784;49.138;2022-12-05T22:31:43;22.70;;;7.97;;
67712;SDS011;54503;55.784;49.138;2022-12-05T22:37:02;22.70;;;7.70;;
67712;SDS011;54503;55.784;49.138;2022-12-05T22:42:29;26.85;;;7.62;;
67712;SDS011;54503;55.784;49.138;2022-12-05T22:47:34;20.92;;;7.85;;
67712;SDS011;54503;55.784;49.138;2022-12-05T22:52:40;18.02;;;7.55;;
67712;SDS011;54503;55.784;49.138;2022-12-05T22:57:59;21.87;;;8.08;;
67712;SDS011;54503;55.784;49.138;2022-12-05T23:03:19;22.93;;;8.37;;
67712;SDS011;54503;55.784;49.138;2022-12-05T23:08:39;18.92;;;6.60;;
67712;SDS011;54503;55.784;49.138;2022-12-05T23:13:45;28.98;;;8.50;;
67712;SDS011;54503;55.784;49.138;2022-12-05T23:24:09;24.10;;;7.45;;
67712;SDS011;54503;55.784;49.138;2022-12-05T23:29:15;25.80;;;7.37;;
67712;SDS011;54503;55.784;49.138;2022-12-05T23:34:31;23.90;;;8.08;;
67712;SDS011;54503;55.784;49.138;2022-12-05T23:39:36;23.12;;;7.00;;
67712;SDS011;54503;55.784;49.138;2022-12-05T23:44:42;23.67;;;6.83;;
67712;SDS011;54503;55.784;49.138;2022-12-05T23:50:01;29.97;;;6.57;;
67712;SDS011;54503;55.784;49.138;2022-12-05T23:55:23;16.73;;;5.63;;
